createdAt,value
2022-10-15T00:00:36.762Z,100.00
2022-10-15T00:01:38.349Z,100.00
2022-10-15T00:02:41.182Z,100.00
2022-10-15T00:03:44.648Z,100.00
2022-10-15T00:04:46.349Z,100.00
2022-10-15T00:05:47.774Z,100.00
2022-10-15T00:06:49.282Z,100.00
2022-10-15T00:07:50.727Z,100.00
2022-10-15T00:08:52.145Z,100.00
2022-10-15T00:09:53.559Z,100.00
2022-10-15T00:10:55.023Z,100.00
2022-10-15T00:11:56.453Z,100.00
2022-10-15T00:12:58.230Z,100.00
2022-10-15T00:14:00.443Z,100.00
2022-10-15T00:15:01.916Z,100.00
2022-10-15T00:16:04.481Z,100.00
2022-10-15T00:17:05.951Z,100.00
2022-10-15T00:18:08.717Z,100.00
2022-10-15T00:19:10.388Z,100.00
2022-10-15T00:20:12.274Z,100.00
2022-10-15T00:21:15.870Z,100.00
2022-10-15T00:22:17.297Z,100.00
2022-10-15T00:23:18.726Z,100.00
2022-10-15T00:24:21.011Z,100.00
2022-10-15T00:25:22.478Z,100.00
2022-10-15T00:26:27.046Z,100.00
2022-10-15T00:27:28.488Z,100.00
2022-10-15T00:28:33.406Z,100.00
2022-10-15T00:29:35.867Z,100.00
2022-10-15T00:30:37.356Z,100.00
2022-10-15T00:31:38.802Z,100.00
2022-10-15T00:32:40.296Z,100.00
2022-10-15T00:33:43.187Z,100.00
2022-10-15T00:34:44.952Z,100.00
2022-10-15T00:35:46.480Z,100.00
2022-10-15T00:36:50.351Z,100.00
2022-10-15T00:37:51.828Z,100.00
2022-10-15T00:38:53.790Z,100.00
2022-10-15T00:39:55.274Z,100.00
2022-10-15T00:40:57.264Z,100.00
2022-10-15T00:41:58.699Z,100.00
2022-10-15T00:43:00.201Z,100.00
2022-10-15T00:44:23.087Z,100.00
2022-10-15T00:45:24.525Z,100.00
2022-10-15T00:46:30.668Z,100.00
2022-10-15T00:47:38.737Z,100.00
2022-10-15T00:48:40.519Z,100.00
2022-10-15T00:49:49.708Z,100.00
2022-10-15T00:50:51.226Z,100.00
2022-10-15T00:51:56.992Z,100.00
2022-10-15T00:53:02.198Z,100.00
2022-10-15T00:54:03.964Z,100.00
2022-10-15T00:55:09.718Z,100.00
2022-10-15T00:56:12.170Z,100.00
2022-10-15T00:57:14.240Z,100.00
2022-10-15T00:58:17.928Z,100.00
2022-10-15T00:59:21.329Z,100.00
2022-10-15T01:00:23.031Z,100.00
2022-10-15T01:01:24.993Z,100.00
2022-10-15T01:02:26.770Z,100.00
2022-10-15T01:03:28.362Z,100.00
2022-10-15T01:04:31.240Z,100.00
2022-10-15T01:05:35.333Z,100.00
2022-10-15T01:06:37.175Z,100.00
2022-10-15T01:07:38.966Z,100.00
2022-10-15T01:08:40.452Z,100.00
2022-10-15T01:09:42.101Z,100.00
2022-10-15T01:10:50.502Z,100.00
2022-10-15T01:11:54.167Z,100.00
2022-10-15T01:13:01.399Z,100.00
2022-10-15T01:14:14.580Z,100.00
2022-10-15T01:15:21.820Z,100.00
2022-10-15T01:16:32.641Z,100.00
2022-10-15T01:17:41.904Z,100.00
2022-10-15T01:18:48.516Z,100.00
2022-10-15T01:20:09.981Z,100.00
2022-10-15T01:21:19.433Z,100.00
2022-10-15T01:22:36.451Z,100.00
2022-10-15T01:24:22.507Z,100.00
2022-10-15T01:25:35.859Z,100.00
2022-10-15T01:27:17.153Z,100.00
2022-10-15T01:28:30.232Z,100.00
2022-10-15T01:29:52.915Z,100.00
2022-10-15T01:31:01.124Z,100.00
2022-10-15T01:32:05.289Z,100.00
2022-10-15T01:33:22.789Z,100.00
2022-10-15T01:34:31.886Z,100.00
2022-10-15T01:35:43.951Z,100.00
2022-10-15T01:36:52.864Z,100.00
2022-10-15T01:37:59.576Z,100.00
2022-10-15T01:39:09.267Z,100.00
2022-10-15T01:40:16.818Z,100.00
2022-10-15T01:41:22.763Z,100.00
2022-10-15T01:42:30.331Z,100.00
2022-10-15T01:43:37.279Z,100.00
2022-10-15T01:44:42.215Z,100.00
2022-10-15T01:45:49.040Z,100.00
2022-10-15T01:46:57.473Z,100.00
2022-10-15T01:48:02.082Z,100.00
2022-10-15T01:49:05.689Z,100.00
2022-10-15T01:50:09.969Z,100.00
2022-10-15T01:51:12.883Z,100.00
2022-10-15T01:52:17.847Z,100.00
2022-10-15T01:53:21.920Z,100.00
2022-10-15T01:54:26.972Z,100.00
2022-10-15T01:55:30.631Z,100.00
2022-10-15T01:56:34.596Z,100.00
2022-10-15T01:57:38.804Z,100.00
2022-10-15T01:58:43.125Z,100.00
2022-10-15T01:59:44.556Z,100.00
2022-10-15T02:00:47.830Z,100.00
2022-10-15T02:01:49.550Z,100.00
2022-10-15T02:02:52.289Z,100.00
2022-10-15T02:03:54.072Z,100.00
2022-10-15T02:04:55.537Z,100.00
2022-10-15T02:06:06.101Z,100.00
2022-10-15T02:07:10.169Z,100.00
2022-10-15T02:08:19.803Z,100.00
2022-10-15T02:09:31.621Z,100.00
2022-10-15T02:10:47.453Z,100.00
2022-10-15T02:12:08.556Z,100.00
2022-10-15T02:13:21.443Z,100.00
2022-10-15T02:14:29.315Z,100.00
2022-10-15T02:15:36.276Z,100.00
2022-10-15T02:16:43.324Z,100.00
2022-10-15T02:17:53.756Z,100.00
2022-10-15T02:19:02.249Z,100.00
2022-10-15T02:20:11.732Z,100.00
2022-10-15T02:21:16.661Z,100.00
2022-10-15T02:22:22.399Z,100.00
2022-10-15T02:23:27.713Z,100.00
2022-10-15T02:24:35.012Z,100.00
2022-10-15T02:25:39.121Z,100.00
2022-10-15T02:26:42.272Z,100.00
2022-10-15T02:27:45.711Z,100.00
2022-10-15T02:28:51.551Z,100.00
2022-10-15T02:29:54.936Z,100.00
2022-10-15T02:30:57.967Z,100.00
2022-10-15T02:32:01.834Z,100.00
2022-10-15T02:33:04.029Z,100.00
2022-10-15T02:34:09.535Z,100.00
2022-10-15T02:35:12.174Z,100.00
2022-10-15T02:36:14.772Z,100.00
2022-10-15T02:37:20.484Z,100.00
2022-10-15T02:38:24.830Z,100.00
2022-10-15T02:39:26.384Z,100.00
2022-10-15T02:40:31.000Z,100.00
2022-10-15T02:41:34.463Z,100.00
2022-10-15T02:42:35.923Z,100.00
2022-10-15T02:43:38.997Z,100.00
2022-10-15T02:44:40.418Z,100.00
2022-10-15T02:45:42.082Z,100.00
2022-10-15T02:46:43.587Z,100.00
2022-10-15T02:47:45.043Z,100.00
2022-10-15T02:48:46.481Z,100.00
2022-10-15T02:49:49.219Z,100.00
2022-10-15T02:50:50.686Z,100.00
2022-10-15T02:51:52.098Z,100.00
2022-10-15T02:52:53.568Z,100.00
2022-10-15T02:53:55.011Z,100.00
2022-10-15T02:54:56.423Z,100.00
2022-10-15T02:55:57.923Z,100.00
2022-10-15T02:56:59.387Z,100.00
2022-10-15T02:58:00.806Z,100.00
2022-10-15T02:59:02.269Z,100.00
2022-10-15T03:00:04.769Z,100.00
2022-10-15T03:01:06.554Z,100.00
2022-10-15T03:02:08.489Z,100.00
2022-10-15T03:03:10.478Z,100.00
2022-10-15T03:04:12.153Z,100.00
2022-10-15T03:05:14.970Z,100.00
2022-10-15T03:06:16.478Z,100.00
2022-10-15T03:07:17.887Z,100.00
2022-10-15T03:08:19.303Z,100.00
2022-10-15T03:09:20.736Z,100.00
2022-10-15T03:10:22.166Z,100.00
2022-10-15T03:11:23.624Z,100.00
2022-10-15T03:12:25.162Z,100.00
2022-10-15T03:13:26.613Z,100.00
2022-10-15T03:15:36.653Z,100.00
2022-10-15T03:16:38.107Z,100.00
2022-10-15T03:17:39.596Z,100.00
2022-10-15T03:18:41.119Z,100.00
2022-10-15T03:19:42.573Z,100.00
2022-10-15T03:20:52.771Z,100.00
2022-10-15T03:21:54.172Z,100.00
2022-10-15T03:22:55.609Z,100.00
2022-10-15T03:23:57.175Z,100.00
2022-10-15T03:24:58.612Z,100.00
2022-10-15T03:26:00.111Z,100.00
2022-10-15T03:27:01.588Z,100.00
2022-10-15T03:28:03.198Z,100.00
2022-10-15T03:29:04.670Z,100.00
2022-10-15T03:30:07.578Z,100.00
2022-10-15T03:31:09.011Z,100.00
2022-10-15T03:32:10.449Z,100.00
2022-10-15T03:33:12.369Z,100.00
2022-10-15T03:34:13.780Z,100.00
2022-10-15T03:35:15.387Z,100.00
2022-10-15T03:36:18.187Z,100.00
2022-10-15T03:37:19.608Z,100.00
2022-10-15T03:38:21.091Z,100.00
2022-10-15T03:39:22.599Z,100.00
2022-10-15T03:40:24.065Z,100.00
2022-10-15T03:41:25.462Z,100.00
2022-10-15T03:42:27.086Z,100.00
2022-10-15T03:43:28.573Z,100.00
2022-10-15T03:44:30.103Z,100.00
2022-10-15T03:45:32.225Z,100.00
2022-10-15T03:46:34.789Z,100.00
2022-10-15T03:47:36.241Z,100.00
2022-10-15T03:48:37.956Z,100.00
2022-10-15T03:49:39.409Z,100.00
2022-10-15T03:50:40.855Z,100.00
2022-10-15T03:51:43.710Z,100.00
2022-10-15T03:52:45.177Z,100.00
2022-10-15T03:53:46.767Z,100.00
2022-10-15T03:54:48.253Z,100.00
2022-10-15T03:55:49.924Z,100.00
2022-10-15T03:56:51.405Z,100.00
2022-10-15T03:57:52.834Z,100.00
2022-10-15T03:58:54.281Z,100.00
2022-10-15T03:59:55.788Z,100.00
2022-10-15T04:00:57.250Z,100.00
2022-10-15T04:01:58.808Z,100.00
2022-10-15T04:03:00.266Z,100.00
2022-10-15T04:04:01.695Z,100.00
2022-10-15T04:05:03.495Z,100.00
2022-10-15T04:06:05.534Z,100.00
2022-10-15T04:07:08.315Z,100.00
2022-10-15T04:08:09.780Z,100.00
2022-10-15T04:09:11.210Z,100.00
2022-10-15T04:10:12.707Z,100.00
2022-10-15T04:11:14.123Z,100.00
2022-10-15T04:12:16.780Z,100.00
2022-10-15T04:13:18.232Z,100.00
2022-10-15T04:14:19.645Z,100.00
2022-10-15T04:15:21.062Z,100.00
2022-10-15T04:16:22.844Z,100.00
2022-10-15T04:17:24.324Z,100.00
2022-10-15T04:18:25.829Z,100.00
2022-10-15T04:19:27.309Z,100.00
2022-10-15T04:20:28.712Z,100.00
2022-10-15T04:21:30.123Z,100.00
2022-10-15T04:22:32.905Z,100.00
2022-10-15T04:23:35.106Z,100.00
2022-10-15T04:24:36.552Z,100.00
2022-10-15T04:25:38.235Z,100.00
2022-10-15T04:26:39.640Z,100.00
2022-10-15T04:27:41.092Z,100.00
2022-10-15T04:28:42.682Z,100.00
2022-10-15T04:29:44.131Z,100.00
2022-10-15T04:30:45.536Z,100.00
2022-10-15T04:31:46.978Z,100.00
2022-10-15T04:32:51.507Z,100.00
2022-10-15T04:33:52.983Z,100.00
2022-10-15T04:34:54.438Z,100.00
2022-10-15T04:36:03.823Z,100.00
2022-10-15T04:37:05.300Z,100.00
2022-10-15T04:38:08.066Z,100.00
2022-10-15T04:39:12.189Z,100.00
2022-10-15T04:40:16.277Z,100.00
2022-10-15T04:41:17.723Z,100.00
2022-10-15T04:42:19.147Z,100.00
2022-10-15T04:43:20.539Z,100.00
2022-10-15T04:44:21.946Z,100.00
2022-10-15T04:46:25.859Z,100.00
2022-10-15T04:47:27.286Z,100.00
2022-10-15T04:48:30.469Z,100.00
2022-10-15T04:49:31.887Z,100.00
2022-10-15T04:50:33.331Z,100.00
2022-10-15T04:51:34.763Z,100.00
2022-10-15T04:52:36.207Z,100.00
2022-10-15T04:53:39.717Z,100.00
2022-10-15T04:54:41.150Z,100.00
2022-10-15T04:55:42.569Z,100.00
2022-10-15T04:56:44.021Z,100.00
2022-10-15T04:57:45.418Z,100.00
2022-10-15T04:58:48.875Z,100.00
2022-10-15T04:59:53.920Z,100.00
2022-10-15T05:01:02.596Z,100.00
2022-10-15T05:02:04.124Z,100.00
2022-10-15T05:03:06.210Z,100.00
2022-10-15T05:04:09.762Z,100.00
2022-10-15T05:05:11.315Z,100.00
2022-10-15T05:06:14.472Z,100.00
2022-10-15T05:07:15.882Z,100.00
2022-10-15T05:08:17.353Z,100.00
2022-10-15T05:09:20.125Z,100.00
2022-10-15T05:10:21.559Z,100.00
2022-10-15T05:11:24.710Z,100.00
2022-10-15T05:12:26.111Z,100.00
2022-10-15T05:13:27.978Z,100.00
2022-10-15T05:14:29.439Z,100.00
2022-10-15T05:15:31.053Z,100.00
2022-10-15T05:16:33.291Z,100.00
2022-10-15T05:17:34.697Z,100.00
2022-10-15T05:18:36.123Z,100.00
2022-10-15T05:19:37.587Z,100.00
2022-10-15T05:20:39.025Z,100.00
2022-10-15T05:21:40.528Z,100.00
2022-10-15T05:22:41.957Z,100.00
2022-10-15T05:23:44.949Z,100.00
2022-10-15T05:24:47.725Z,100.00
2022-10-15T05:25:51.731Z,100.00
2022-10-15T05:26:55.456Z,100.00
2022-10-15T05:27:56.865Z,100.00
2022-10-15T05:28:59.506Z,100.00
2022-10-15T05:30:01.475Z,100.00
2022-10-15T05:31:06.339Z,100.00
2022-10-15T05:32:07.818Z,100.00
2022-10-15T05:33:09.285Z,100.00
2022-10-15T05:34:12.508Z,100.00
2022-10-15T05:35:14.132Z,100.00
2022-10-15T05:36:18.241Z,100.00
2022-10-15T05:37:19.698Z,100.00
2022-10-15T05:38:21.112Z,100.00
2022-10-15T05:39:22.676Z,100.00
2022-10-15T05:40:25.617Z,100.00
2022-10-15T05:41:27.906Z,100.00
2022-10-15T05:42:29.336Z,100.00
2022-10-15T05:43:30.743Z,100.00
2022-10-15T05:44:32.207Z,100.00
2022-10-15T05:45:33.599Z,100.00
2022-10-15T05:46:35.089Z,100.00
2022-10-15T05:47:36.520Z,100.00
2022-10-15T05:48:37.957Z,100.00
2022-10-15T05:49:39.416Z,100.00
2022-10-15T05:50:40.811Z,100.00
2022-10-15T05:51:42.269Z,100.00
2022-10-15T05:52:43.688Z,100.00
2022-10-15T05:53:45.391Z,100.00
2022-10-15T05:54:46.807Z,100.00
2022-10-15T05:55:52.683Z,100.00
2022-10-15T05:56:54.120Z,100.00
2022-10-15T05:57:55.527Z,100.00
2022-10-15T05:58:57.613Z,100.00
2022-10-15T05:59:59.026Z,100.00
2022-10-15T06:01:02.389Z,100.00
2022-10-15T06:02:03.880Z,100.00
2022-10-15T06:03:05.362Z,100.00
2022-10-15T06:04:06.823Z,100.00
2022-10-15T06:05:08.555Z,100.00
2022-10-15T06:06:15.084Z,100.00
2022-10-15T06:07:16.552Z,100.00
2022-10-15T06:08:18.120Z,100.00
2022-10-15T06:09:19.611Z,100.00
2022-10-15T06:10:21.009Z,100.00
2022-10-15T06:11:23.856Z,100.00
2022-10-15T06:12:25.338Z,100.00
2022-10-15T06:14:33.086Z,100.00
2022-10-15T06:15:34.525Z,100.00
2022-10-15T06:16:35.968Z,100.00
2022-10-15T06:17:37.401Z,100.00
2022-10-15T06:18:38.982Z,100.00
2022-10-15T06:19:40.403Z,100.00
2022-10-15T06:20:41.904Z,100.00
2022-10-15T06:21:43.334Z,100.00
2022-10-15T06:22:44.794Z,100.00
2022-10-15T06:23:46.254Z,100.00
2022-10-15T06:24:47.990Z,100.00
2022-10-15T06:25:49.417Z,100.00
2022-10-15T06:26:52.227Z,100.00
2022-10-15T06:27:54.155Z,100.00
2022-10-15T06:28:55.631Z,100.00
2022-10-15T06:29:57.093Z,100.00
2022-10-15T06:30:59.072Z,100.00
2022-10-15T06:32:00.460Z,100.00
2022-10-15T06:33:01.984Z,100.00
2022-10-15T06:34:03.522Z,100.00
2022-10-15T06:35:05.936Z,100.00
2022-10-15T06:36:09.381Z,100.00
2022-10-15T06:37:10.918Z,100.00
2022-10-15T06:38:12.342Z,100.00
2022-10-15T06:39:13.793Z,100.00
2022-10-15T06:40:15.663Z,100.00
2022-10-15T06:41:17.191Z,100.00
2022-10-15T06:42:20.014Z,100.00
2022-10-15T06:43:21.469Z,100.00
2022-10-15T06:44:22.874Z,100.00
2022-10-15T06:45:24.329Z,100.00
2022-10-15T06:46:25.883Z,100.00
2022-10-15T06:47:27.582Z,100.00
2022-10-15T06:48:29.044Z,99.89
2022-10-15T06:49:30.533Z,100.00
2022-10-15T06:50:32.124Z,99.86
2022-10-15T06:51:33.549Z,99.74
2022-10-15T06:52:35.323Z,99.95
2022-10-15T06:53:36.825Z,99.49
2022-10-15T06:54:38.279Z,99.37
2022-10-15T06:55:39.688Z,99.61
2022-10-15T06:56:41.143Z,99.73
2022-10-15T06:57:43.864Z,99.44
2022-10-15T06:58:45.272Z,99.01
2022-10-15T06:59:46.681Z,98.82
2022-10-15T07:00:48.100Z,98.65
2022-10-15T07:01:49.519Z,98.44
2022-10-15T07:02:51.588Z,98.27
2022-10-15T07:03:53.051Z,97.94
2022-10-15T07:04:54.484Z,97.46
2022-10-15T07:05:56.134Z,98.06
2022-10-15T07:06:57.716Z,98.41
2022-10-15T07:07:59.301Z,98.65
2022-10-15T07:09:01.462Z,97.84
2022-10-15T07:10:03.180Z,97.65
2022-10-15T07:11:06.686Z,98.12
2022-10-15T07:12:08.113Z,97.96
2022-10-15T07:13:10.879Z,98.02
2022-10-15T07:14:12.299Z,98.04
2022-10-15T07:15:14.020Z,98.47
2022-10-15T07:16:15.431Z,99.29
2022-10-15T07:17:16.896Z,99.12
2022-10-15T07:18:18.319Z,99.33
2022-10-15T07:19:19.753Z,99.46
2022-10-15T07:20:24.181Z,99.89
2022-10-15T07:21:25.841Z,99.73
2022-10-15T07:22:27.299Z,99.27
2022-10-15T07:23:28.719Z,99.46
2022-10-15T07:24:30.304Z,99.88
2022-10-15T07:25:32.024Z,99.51
2022-10-15T07:26:33.504Z,98.69
2022-10-15T07:27:34.956Z,98.71
2022-10-15T07:28:37.818Z,98.74
2022-10-15T07:29:39.640Z,98.53
2022-10-15T07:30:41.073Z,98.44
2022-10-15T07:31:42.548Z,98.70
2022-10-15T07:32:46.363Z,98.88
2022-10-15T07:33:48.142Z,98.99
2022-10-15T07:34:49.571Z,99.13
2022-10-15T07:35:50.995Z,99.31
2022-10-15T07:36:52.435Z,99.99
2022-10-15T07:37:53.916Z,99.93
2022-10-15T07:38:55.378Z,99.83
2022-10-15T07:39:56.858Z,99.87
2022-10-15T07:40:59.194Z,100.00
2022-10-15T07:42:01.421Z,100.00
2022-10-15T07:43:02.876Z,100.00
2022-10-15T07:44:05.707Z,100.00
2022-10-15T07:45:08.118Z,100.00
2022-10-15T07:46:09.580Z,100.00
2022-10-15T07:47:11.009Z,100.00
2022-10-15T07:48:12.411Z,100.00
2022-10-15T07:49:13.932Z,100.00
2022-10-15T07:50:15.919Z,100.00
2022-10-15T07:52:23.930Z,99.70
2022-10-15T07:53:25.979Z,99.66
2022-10-15T07:54:27.440Z,99.94
2022-10-15T07:55:28.833Z,100.00
2022-10-15T07:56:30.250Z,99.61
2022-10-15T07:57:31.694Z,98.87
2022-10-15T07:58:33.986Z,99.38
2022-10-15T07:59:36.770Z,99.27
2022-10-15T08:00:38.168Z,99.04
2022-10-15T08:01:39.601Z,99.29
2022-10-15T08:02:41.046Z,99.41
2022-10-15T08:03:42.464Z,99.69
2022-10-15T08:04:43.973Z,99.36
2022-10-15T08:05:45.423Z,99.88
2022-10-15T08:06:47.097Z,99.65
2022-10-15T08:07:48.526Z,100.00
2022-10-15T08:08:49.967Z,100.00
2022-10-15T08:09:51.440Z,99.80
2022-10-15T08:10:53.396Z,100.00
2022-10-15T08:11:54.853Z,100.00
2022-10-15T08:12:56.300Z,100.00
2022-10-15T08:13:57.721Z,100.00
2022-10-15T08:15:00.508Z,100.00
2022-10-15T08:16:01.977Z,99.79
2022-10-15T08:17:05.400Z,99.69
2022-10-15T08:18:07.248Z,99.78
2022-10-15T08:19:08.694Z,99.24
2022-10-15T08:20:11.058Z,100.00
2022-10-15T08:21:12.619Z,99.69
2022-10-15T08:22:14.040Z,99.22
2022-10-15T08:23:16.628Z,98.97
2022-10-15T08:24:18.212Z,98.98
2022-10-15T08:25:19.614Z,99.38
2022-10-15T08:26:21.059Z,98.62
2022-10-15T08:27:22.809Z,98.28
2022-10-15T08:28:24.374Z,98.45
2022-10-15T08:29:25.922Z,98.04
2022-10-15T08:30:28.967Z,97.61
2022-10-15T08:31:30.460Z,98.33
2022-10-15T08:32:31.889Z,98.29
2022-10-15T08:33:34.374Z,98.24
2022-10-15T08:34:35.858Z,98.25
2022-10-15T08:35:40.841Z,98.09
2022-10-15T08:36:42.285Z,98.65
2022-10-15T08:37:43.701Z,98.52
2022-10-15T08:38:45.176Z,99.26
2022-10-15T08:39:46.738Z,98.27
2022-10-15T08:40:48.831Z,98.13
2022-10-15T08:41:53.948Z,97.74
2022-10-15T08:42:55.830Z,98.03
2022-10-15T08:43:58.049Z,97.88
2022-10-15T08:45:02.224Z,97.91
2022-10-15T08:46:11.430Z,97.82
2022-10-15T08:47:27.042Z,97.91
2022-10-15T08:48:31.108Z,97.36
2022-10-15T08:49:38.255Z,97.43
2022-10-15T08:50:43.214Z,97.31
2022-10-15T08:51:48.252Z,96.95
2022-10-15T08:52:50.767Z,96.65
2022-10-15T08:53:56.426Z,97.53
2022-10-15T08:55:00.774Z,98.79
2022-10-15T08:56:08.656Z,98.13
2022-10-15T08:57:20.531Z,97.84
2022-10-15T08:58:28.584Z,97.56
2022-10-15T08:59:35.973Z,97.13
2022-10-15T09:00:43.175Z,97.48
2022-10-15T09:01:52.008Z,96.27
2022-10-15T09:03:00.230Z,95.43
2022-10-15T09:04:12.789Z,95.25
2022-10-15T09:05:26.722Z,95.11
2022-10-15T09:06:33.082Z,95.83
2022-10-15T09:07:42.561Z,94.44
2022-10-15T09:08:53.083Z,93.74
2022-10-15T09:10:01.270Z,93.69
2022-10-15T09:11:06.807Z,94.26
2022-10-15T09:12:27.711Z,94.84
2022-10-15T09:13:33.674Z,96.19
2022-10-15T09:14:39.507Z,95.54
2022-10-15T09:15:50.777Z,95.61
2022-10-15T09:16:53.566Z,96.55
2022-10-15T09:17:55.763Z,96.47
2022-10-15T09:19:02.576Z,95.37
2022-10-15T09:20:06.536Z,95.23
2022-10-15T09:21:09.791Z,95.08
2022-10-15T09:22:14.281Z,95.60
2022-10-15T09:23:18.981Z,94.55
2022-10-15T09:24:23.410Z,94.76
2022-10-15T09:25:27.599Z,94.39
2022-10-15T09:26:40.181Z,94.28
2022-10-15T09:27:41.960Z,94.30
2022-10-15T09:28:52.038Z,94.73
2022-10-15T09:30:02.650Z,93.73
2022-10-15T09:31:07.191Z,92.89
2022-10-15T09:32:18.200Z,93.53
2022-10-15T09:33:33.383Z,93.44
2022-10-15T09:34:42.930Z,93.11
2022-10-15T09:35:49.892Z,92.99
2022-10-15T09:36:54.919Z,92.49
2022-10-15T09:38:09.685Z,91.56
2022-10-15T09:39:28.532Z,91.10
2022-10-15T09:40:52.793Z,90.65
2022-10-15T09:42:02.206Z,89.05
2022-10-15T09:43:05.680Z,90.65
2022-10-15T09:44:11.112Z,89.79
2022-10-15T09:45:14.435Z,88.33
2022-10-15T09:46:15.931Z,88.21
2022-10-15T09:47:24.334Z,87.67
2022-10-15T09:48:27.191Z,87.84
2022-10-15T09:49:33.854Z,88.14
2022-10-15T09:50:44.700Z,87.67
2022-10-15T09:51:53.585Z,87.16
2022-10-15T09:53:11.172Z,88.48
2022-10-15T09:54:18.945Z,87.73
2022-10-15T09:55:32.910Z,87.82
2022-10-15T09:56:38.022Z,88.10
2022-10-15T09:57:40.563Z,88.58
2022-10-15T09:58:51.459Z,88.52
2022-10-15T09:59:54.946Z,88.84
2022-10-15T10:01:00.364Z,87.86
2022-10-15T10:02:03.694Z,87.17
2022-10-15T10:03:15.163Z,87.60
2022-10-15T10:04:19.382Z,88.13
2022-10-15T10:05:28.344Z,87.46
2022-10-15T10:06:29.844Z,87.48
2022-10-15T10:07:33.419Z,85.54
2022-10-15T10:08:38.201Z,85.35
2022-10-15T10:09:51.911Z,85.35
2022-10-15T10:10:54.907Z,84.96
2022-10-15T10:11:59.365Z,85.97
2022-10-15T10:13:00.858Z,85.03
2022-10-15T10:14:04.480Z,84.49
2022-10-15T10:15:25.955Z,84.83
2022-10-15T10:16:27.871Z,84.36
2022-10-15T10:17:30.324Z,85.85
2022-10-15T10:18:33.243Z,85.35
2022-10-15T10:19:34.723Z,83.06
2022-10-15T10:20:36.161Z,83.01
2022-10-15T10:21:38.522Z,84.07
2022-10-15T10:22:44.088Z,84.34
2022-10-15T10:23:46.961Z,83.14
2022-10-15T10:24:48.438Z,83.44
2022-10-15T10:25:50.340Z,83.52
2022-10-15T10:26:51.853Z,83.13
2022-10-15T10:27:54.378Z,82.10
2022-10-15T10:29:04.641Z,81.67
2022-10-15T10:30:13.872Z,81.69
2022-10-15T10:31:15.472Z,81.99
2022-10-15T10:32:20.508Z,81.08
2022-10-15T10:33:27.256Z,81.96
2022-10-15T10:34:32.816Z,82.94
2022-10-15T10:35:43.855Z,82.70
2022-10-15T10:36:49.355Z,81.73
2022-10-15T10:37:52.236Z,81.68
2022-10-15T10:39:01.698Z,80.66
2022-10-15T10:40:03.721Z,80.33
2022-10-15T10:41:07.262Z,80.31
2022-10-15T10:42:24.212Z,80.25
2022-10-15T10:43:27.031Z,80.69
2022-10-15T10:44:30.631Z,81.19
2022-10-15T10:45:32.106Z,79.58
2022-10-15T10:46:33.615Z,79.51
2022-10-15T10:47:36.237Z,78.93
2022-10-15T10:48:40.484Z,78.68
2022-10-15T10:49:45.091Z,78.28
2022-10-15T10:50:46.610Z,78.15
2022-10-15T10:51:49.072Z,78.69
2022-10-15T10:52:50.483Z,78.22
2022-10-15T10:53:55.501Z,78.98
2022-10-15T10:55:03.179Z,78.58
2022-10-15T10:56:08.381Z,77.46
2022-10-15T10:57:13.559Z,78.40
2022-10-15T10:58:20.947Z,78.94
2022-10-15T10:59:28.190Z,78.28
2022-10-15T11:00:38.483Z,77.25
2022-10-15T11:01:39.971Z,78.10
2022-10-15T11:02:41.512Z,77.43
2022-10-15T11:03:45.211Z,76.60
2022-10-15T11:04:48.028Z,76.49
2022-10-15T11:05:56.885Z,76.95
2022-10-15T11:07:02.512Z,77.08
2022-10-15T11:08:17.444Z,77.70
2022-10-15T11:09:51.133Z,77.73
2022-10-15T11:11:05.039Z,78.15
2022-10-15T11:12:24.245Z,78.31
2022-10-15T11:13:44.011Z,78.54
2022-10-15T11:14:53.111Z,80.45
2022-10-15T11:16:00.329Z,79.75
2022-10-15T11:17:42.833Z,79.56
2022-10-15T11:18:56.512Z,79.90
2022-10-15T11:21:48.252Z,79.32
2022-10-15T11:23:08.904Z,79.35
2022-10-15T11:24:15.951Z,79.45
2022-10-15T11:25:28.839Z,79.12
2022-10-15T11:27:09.544Z,78.52
2022-10-15T11:28:26.953Z,77.58
2022-10-15T11:29:37.442Z,78.85
2022-10-15T11:30:49.143Z,79.10
2022-10-15T11:32:10.400Z,79.13
2022-10-15T11:33:41.280Z,78.72
2022-10-15T11:34:55.425Z,79.01
2022-10-15T11:36:10.497Z,79.63
2022-10-15T11:37:27.263Z,79.65
2022-10-15T11:38:39.403Z,79.49
2022-10-15T11:39:57.971Z,78.93
2022-10-15T11:41:14.616Z,78.86
2022-10-15T11:42:23.733Z,78.13
2022-10-15T11:43:43.316Z,78.12
2022-10-15T11:45:07.858Z,77.99
2022-10-15T11:46:14.759Z,77.86
2022-10-15T11:47:30.813Z,78.82
2022-10-15T11:48:47.246Z,78.60
2022-10-15T11:50:03.188Z,77.00
2022-10-15T11:51:17.701Z,76.94
2022-10-15T11:52:36.030Z,75.64
2022-10-15T11:54:05.237Z,77.13
2022-10-15T11:55:13.768Z,76.34
2022-10-15T11:56:19.536Z,75.63
2022-10-15T11:57:24.700Z,75.76
2022-10-15T11:58:31.162Z,75.51
2022-10-15T11:59:37.343Z,75.84
2022-10-15T12:00:43.763Z,75.71
2022-10-15T12:01:49.654Z,74.88
2022-10-15T12:02:54.032Z,75.43
2022-10-15T12:03:59.258Z,75.21
2022-10-15T12:05:06.389Z,74.72
2022-10-15T12:06:14.945Z,74.96
2022-10-15T12:07:20.173Z,75.67
2022-10-15T12:08:24.199Z,74.89
2022-10-15T12:09:30.166Z,75.46
2022-10-15T12:10:42.072Z,74.85
2022-10-15T12:11:50.598Z,74.76
2022-10-15T12:13:00.047Z,76.68
2022-10-15T12:14:11.068Z,77.09
2022-10-15T12:15:24.329Z,76.97
2022-10-15T12:16:33.649Z,77.55
2022-10-15T12:17:45.263Z,78.03
2022-10-15T12:18:52.500Z,78.13
2022-10-15T12:19:58.639Z,77.81
2022-10-15T12:21:00.117Z,78.75
2022-10-15T12:22:08.192Z,78.49
2022-10-15T12:23:23.741Z,78.13
2022-10-15T12:24:51.404Z,79.87
2022-10-15T12:25:53.299Z,79.87
2022-10-15T12:26:54.987Z,79.52
2022-10-15T12:28:00.356Z,78.90
2022-10-15T12:29:04.890Z,78.93
2022-10-15T12:30:20.740Z,79.39
2022-10-15T12:31:23.169Z,79.33
2022-10-15T12:32:27.194Z,78.86
2022-10-15T12:33:34.397Z,77.70
2022-10-15T12:34:40.812Z,77.07
2022-10-15T12:35:42.273Z,77.01
2022-10-15T12:36:43.680Z,77.27
2022-10-15T12:37:49.272Z,77.35
2022-10-15T12:38:56.813Z,77.58
2022-10-15T12:40:01.704Z,77.92
2022-10-15T12:41:06.867Z,76.66
2022-10-15T12:42:21.778Z,77.23
2022-10-15T12:43:23.463Z,77.91
2022-10-15T12:44:28.004Z,75.47
2022-10-15T12:45:37.405Z,75.97
2022-10-15T12:46:42.123Z,76.60
2022-10-15T12:47:47.773Z,76.10
2022-10-15T12:48:49.221Z,75.77
2022-10-15T12:50:02.426Z,75.95
2022-10-15T12:51:33.163Z,76.01
2022-10-15T12:53:01.703Z,76.17
2022-10-15T12:54:36.358Z,75.42
2022-10-15T12:55:39.430Z,75.14
2022-10-15T12:56:40.933Z,75.33
2022-10-15T12:58:06.605Z,76.11
2022-10-15T12:59:29.716Z,75.80
2022-10-15T13:00:37.162Z,76.19
2022-10-15T13:01:53.508Z,75.02
2022-10-15T13:02:56.576Z,74.84
2022-10-15T13:04:00.276Z,75.13
2022-10-15T13:05:02.284Z,75.48
2022-10-15T13:06:23.520Z,74.88
2022-10-15T13:07:25.558Z,74.84
2022-10-15T13:08:28.527Z,75.85
2022-10-15T13:09:30.672Z,75.53
2022-10-15T13:10:36.178Z,74.69
2022-10-15T13:11:43.240Z,74.92
2022-10-15T13:12:44.847Z,75.20
2022-10-15T13:13:46.967Z,75.75
2022-10-15T13:14:55.093Z,76.59
2022-10-15T13:15:59.750Z,76.32
2022-10-15T13:17:04.771Z,77.18
2022-10-15T13:18:08.753Z,77.19
2022-10-15T13:19:17.876Z,76.22
2022-10-15T13:20:31.498Z,76.85
2022-10-15T13:21:50.029Z,77.24
2022-10-15T13:22:55.371Z,76.81
2022-10-15T13:24:11.351Z,77.25
2022-10-15T13:25:16.318Z,77.31
2022-10-15T13:26:21.053Z,78.18
2022-10-15T13:27:24.564Z,78.14
2022-10-15T13:28:31.177Z,77.56
2022-10-15T13:29:32.667Z,78.25
2022-10-15T13:30:34.204Z,77.93
2022-10-15T13:31:36.778Z,77.63
2022-10-15T13:32:42.733Z,77.09
2022-10-15T13:33:48.100Z,77.90
2022-10-15T13:34:50.185Z,78.18
2022-10-15T13:35:52.083Z,78.07
2022-10-15T13:36:55.162Z,77.31
2022-10-15T13:37:57.193Z,78.05
2022-10-15T13:39:02.552Z,76.94
2022-10-15T13:40:08.518Z,77.04
2022-10-15T13:41:10.221Z,77.16
2022-10-15T13:42:16.066Z,76.70
2022-10-15T13:43:19.879Z,76.96
2022-10-15T13:44:21.788Z,77.40
2022-10-15T13:45:23.227Z,77.14
2022-10-15T13:46:25.530Z,76.81
2022-10-15T13:47:30.284Z,76.69